Historique des mesures à Cassis (13260), France
Quotidien Résumé Mars 28, 2018 Unités:  Métrique    US   Métrique/US
« Précédent (Jour)
Suivant (Jour) »
Quotidien Hebdomadaire Mensuel Annuel Période au choix
  Maximum: Minimum: Moyenne:
Température: TemperatureC °C 12.4 °C 14.1 °C
Point de rosée: DewpointC °C 8.3 °C 8.6 °C
Humidité: Humidity % 59 % 66 %
Vitesse du vent: 0 km/h 0 km/h 20.6 km/h
Rafales: 0 km/h - -
Vent:- - West
Pression: PressurehPa hPa 1006.7 hPa -
Précipitations: 0.0 mm    
Historical Graphs
 
 
Mesures pour : Mars 28, 2018
Heure Temperature Point de rosée Pression Vent Vitesse du vent Rafales Humidité Pluie (par heure) Conditions
TemperatureC °C DewpointC °C PressurehPa hPa Calm     Humidity % HourlyPrecipMM mm SoftwareType W/m2
00:12 13.2 °C 8.8 °C 1010.7 hPa NW 9.3 km/h 19.6 km/h 75 % 0.0 mm open2300-1.11 W/m2
01:12 12.9 °C 8.6 °C 1010.7 hPa Calm   19.2 km/h 75 % 0.0 mm open2300-1.11 W/m2
02:12 13.0 °C 8.7 °C 1010.4 hPa NNW 19.2 km/h 44.1 km/h 75 % 0.0 mm open2300-1.11 W/m2
03:11 12.8 °C 8.4 °C 1010.0 hPa NNW 23 km/h 23 km/h 75 % 0.0 mm open2300-1.11 W/m2
04:10 12.6 °C 8.3 °C 1009.7 hPa NNW 46.3 km/h 46.3 km/h 75 % 0.0 mm open2300-1.11 W/m2
05:10 12.6 °C 8.4 °C 1009.7 hPa NNW 25.4 km/h 38.8 km/h 76 % 0.0 mm open2300-1.11 W/m2
06:10 12.4 °C 8.3 °C 1009.4 hPa NW 46.8 km/h 46.8 km/h 76 % 0.0 mm open2300-1.11 W/m2
07:10 12.7 °C 8.3 °C 1009.4 hPa WNW 36 km/h 36 km/h 75 % 0.0 mm open2300-1.11 W/m2
08:10 12.8 °C 8.3 °C 1010.0 hPa NNW 9.3 km/h 20.3 km/h 74 % 0.0 mm open2300-1.11 W/m2
09:10 13.8 °C 8.8 °C 1009.7 hPa West 27.2 km/h 27.2 km/h 72 % 0.0 mm open2300-1.11 W/m2
10:10 14.9 °C 9.3 °C 1009.7 hPa North 6.9 km/h 23 km/h 69 % 0.0 mm open2300-1.11 W/m2
11:10 15.7 °C 9.4 °C 1010.0 hPa WNW 11.6 km/h 12.2 km/h 66 % 0.0 mm open2300-1.11 W/m2
12:10 17.4 °C 10.0 °C 1010.0 hPa WNW 19.6 km/h 44.1 km/h 62 % 0.0 mm open2300-1.11 W/m2
13:10 17.1 °C 10.0 °C 1009.4 hPa NW 38.3 km/h 38.8 km/h 63 % 0.0 mm open2300-1.11 W/m2
14:12 16.9 °C 9.8 °C 1009.4 hPa WNW 45.9 km/h 46.8 km/h 63 % 0.0 mm open2300-1.11 W/m2
15:12 17.2 °C 9.6 °C 1008.4 hPa NNW 9.8 km/h 27.2 km/h 61 % 0.0 mm open2300-1.11 W/m2
16:12 16.9 °C 8.8 °C 1008.0 hPa WSW 24.8 km/h 39.9 km/h 59 % 0.0 mm open2300-1.11 W/m2
17:12 16.9 °C 8.8 °C 1007.3 hPa West 16.3 km/h 34.1 km/h 59 % 0.0 mm open2300-1.11 W/m2
18:12 16.9 °C 9.1 °C 1006.7 hPa West 36.5 km/h 36.5 km/h 60 % 0.0 mm open2300-1.11 W/m2
19:12 16.7 °C 8.7 °C 1006.7 hPa WNW 19.2 km/h 19.2 km/h 59 % 0.0 mm open2300-1.11 W/m2
20:11 15.1 °C 8.6 °C 1007.0 hPa WNW 27.7 km/h 27.7 km/h 65 % 0.0 mm open2300-1.11 W/m2
21:11 14.5 °C 8.9 °C 1007.3 hPa North 12.7 km/h 34.1 km/h 69 % 0.0 mm open2300-1.11 W/m2
22:11 14.3 °C 9.1 °C 1008.0 hPa NNW 4.7 km/h 6.4 km/h 71 % 0.0 mm open2300-1.11 W/m2
23:12 13.9 °C 9.3 °C 1007.3 hPa Calm     74 % 0.0 mm open2300-1.11 W/m2
Observations météo à CASSIS
WU-History script by Weather Underground - 1 mb